createdAt,value
2023-02-23T00:00:52.037Z,4.10
2023-02-23T00:03:59.323Z,3.78
2023-02-23T00:07:01.502Z,4.22
2023-02-23T00:10:03.800Z,3.60
2023-02-23T00:13:05.783Z,4.80
2023-02-23T00:16:14.111Z,3.65
2023-02-23T00:19:16.160Z,4.25
2023-02-23T00:22:18.622Z,4.53
2023-02-23T00:25:23.097Z,4.70
2023-02-23T00:28:25.534Z,4.32
2023-02-23T00:31:29.654Z,4.10
2023-02-23T00:34:32.166Z,4.18
2023-02-23T00:37:34.243Z,3.53
2023-02-23T00:40:41.040Z,3.42
2023-02-23T00:43:47.660Z,3.72
2023-02-23T00:46:52.632Z,3.10
2023-02-23T00:49:54.943Z,3.80
2023-02-23T00:52:59.793Z,4.55
2023-02-23T00:56:07.949Z,4.10
2023-02-23T00:59:12.305Z,3.75
2023-02-23T01:02:16.634Z,3.45
2023-02-23T01:05:18.620Z,3.83
2023-02-23T01:08:25.297Z,4.05
2023-02-23T01:11:31.170Z,3.42
2023-02-23T01:14:34.242Z,3.78
2023-02-23T01:17:36.289Z,3.35
2023-02-23T01:20:42.527Z,3.53
2023-02-23T01:23:46.237Z,2.97
2023-02-23T01:26:48.370Z,3.80
2023-02-23T01:29:50.511Z,3.83
2023-02-23T01:32:52.506Z,2.92
2023-02-23T01:36:00.963Z,3.72
2023-02-23T01:39:07.962Z,4.63
2023-02-23T01:42:14.093Z,4.15
2023-02-23T01:45:22.647Z,4.07
2023-02-23T01:51:34.904Z,4.20
2023-02-23T01:54:40.348Z,4.47
2023-02-23T01:57:42.775Z,4.03
2023-02-23T02:00:56.939Z,4.35
2023-02-23T02:04:05.667Z,4.35
2023-02-23T02:07:07.949Z,4.22
2023-02-23T02:10:13.432Z,4.15
2023-02-23T02:13:22.022Z,4.28
2023-02-23T02:16:31.465Z,4.18
2023-02-23T02:20:32.325Z,4.20
2023-02-23T02:27:18.117Z,4.35
2023-02-23T02:30:39.893Z,4.63
2023-02-23T02:34:14.466Z,4.93
2023-02-23T02:37:41.870Z,6.05
2023-02-23T02:41:05.364Z,4.82
2023-02-23T02:44:36.395Z,4.63
2023-02-23T02:47:59.165Z,4.63
2023-02-23T02:51:04.341Z,4.63
2023-02-23T02:54:18.302Z,4.95
2023-02-23T02:57:26.450Z,4.40
2023-02-23T03:00:55.922Z,5.68
2023-02-23T03:04:20.916Z,4.50
2023-02-23T03:08:22.995Z,4.68
2023-02-23T03:11:54.564Z,4.57
2023-02-23T03:15:34.766Z,4.80
2023-02-23T03:19:33.214Z,4.00
2023-02-23T03:23:01.246Z,5.32
2023-02-23T03:26:40.432Z,5.05
2023-02-23T03:30:39.354Z,4.80
2023-02-23T03:34:27.778Z,4.75
2023-02-23T03:37:57.786Z,4.65
2023-02-23T03:41:19.455Z,5.22
2023-02-23T03:44:51.540Z,5.03
2023-02-23T03:48:18.423Z,5.68
2023-02-23T03:51:42.415Z,6.50
2023-02-23T03:55:12.161Z,5.22
2023-02-23T04:01:57.633Z,5.35
2023-02-23T04:05:24.337Z,5.00
2023-02-23T04:08:52.869Z,4.78
2023-02-23T04:12:26.783Z,5.10
2023-02-23T04:15:39.189Z,4.80
2023-02-23T04:18:42.731Z,4.95
2023-02-23T04:21:45.423Z,4.60
2023-02-23T04:24:47.890Z,5.68
2023-02-23T04:27:50.880Z,5.53
2023-02-23T04:30:53.087Z,5.57
2023-02-23T04:33:55.183Z,4.97
2023-02-23T04:36:57.237Z,5.85
2023-02-23T04:39:59.384Z,5.03
2023-02-23T04:43:01.449Z,5.40
2023-02-23T04:46:03.535Z,5.25
2023-02-23T04:49:07.998Z,5.47
2023-02-23T04:52:10.305Z,5.20
2023-02-23T04:55:21.695Z,5.20
2023-02-23T04:58:24.021Z,5.88
2023-02-23T05:01:27.291Z,5.78
2023-02-23T05:04:29.926Z,5.15
2023-02-23T05:07:32.202Z,4.88
2023-02-23T05:10:35.671Z,4.82
2023-02-23T05:13:38.737Z,5.70
2023-02-23T05:16:40.826Z,5.28
2023-02-23T05:19:42.771Z,5.00
2023-02-23T05:22:45.278Z,5.38
2023-02-23T05:25:47.714Z,5.97
2023-02-23T05:28:50.271Z,5.65
2023-02-23T05:31:52.475Z,5.40
2023-02-23T05:34:54.796Z,5.13
2023-02-23T05:37:56.815Z,6.47
2023-02-23T05:40:58.825Z,5.90
2023-02-23T05:44:02.834Z,6.35
2023-02-23T05:47:05.820Z,5.68
2023-02-23T05:50:11.588Z,8.20
2023-02-23T05:53:13.819Z,5.63
2023-02-23T05:56:23.512Z,5.85
2023-02-23T05:59:25.550Z,4.80
2023-02-23T06:02:27.557Z,4.68
2023-02-23T06:05:30.113Z,5.18
2023-02-23T06:08:32.625Z,6.10
2023-02-23T06:11:35.694Z,5.97
2023-02-23T06:14:37.733Z,6.50
2023-02-23T06:17:39.785Z,4.45
2023-02-23T06:20:41.735Z,5.18
2023-02-23T06:23:43.802Z,4.75
2023-02-23T06:26:46.497Z,4.40
2023-02-23T06:29:48.518Z,5.32
2023-02-23T06:32:52.482Z,3.85
2023-02-23T06:35:56.608Z,5.00
2023-02-23T06:38:59.586Z,4.80
2023-02-23T06:42:01.599Z,4.95
2023-02-23T06:45:05.076Z,5.38
2023-02-23T06:48:07.951Z,6.60
2023-02-23T06:51:10.197Z,4.75
2023-02-23T06:54:12.112Z,5.97
2023-02-23T06:57:14.433Z,5.85
2023-02-23T07:00:17.912Z,6.32
2023-02-23T07:03:20.061Z,6.18
2023-02-23T07:06:22.063Z,5.30
2023-02-23T07:09:24.280Z,5.90
2023-02-23T07:12:26.593Z,6.40
2023-02-23T07:15:29.221Z,7.07
2023-02-23T07:18:31.301Z,4.75
2023-02-23T07:21:33.818Z,5.45
2023-02-23T07:24:35.919Z,5.70
2023-02-23T07:27:38.345Z,6.10
2023-02-23T07:30:40.911Z,3.83
2023-02-23T07:33:43.364Z,4.97
2023-02-23T07:36:46.668Z,6.40
2023-02-23T07:39:48.767Z,5.07
2023-02-23T07:42:51.334Z,4.88
2023-02-23T07:45:53.862Z,5.25
2023-02-23T07:48:56.091Z,5.22
2023-02-23T07:51:58.669Z,5.05
2023-02-23T07:55:01.914Z,5.38
2023-02-23T07:58:06.280Z,5.38
2023-02-23T08:01:10.057Z,5.07
2023-02-23T08:04:12.400Z,5.03
2023-02-23T08:07:14.489Z,4.40
2023-02-23T08:10:16.646Z,4.93
2023-02-23T08:13:18.940Z,4.13
2023-02-23T08:16:21.597Z,3.75
2023-02-23T08:19:25.146Z,5.07
2023-02-23T08:22:37.883Z,4.88
2023-02-23T08:25:46.594Z,4.20
2023-02-23T08:28:48.559Z,3.80
2023-02-23T08:31:53.908Z,3.60
2023-02-23T08:34:58.260Z,4.78
2023-02-23T08:38:00.918Z,5.10
2023-02-23T08:41:06.072Z,4.35
2023-02-23T08:44:08.583Z,4.55
2023-02-23T08:47:11.913Z,4.30
2023-02-23T08:50:16.921Z,4.15
2023-02-23T08:53:25.744Z,3.55
2023-02-23T08:56:36.420Z,4.18
2023-02-23T08:59:47.891Z,4.03
2023-02-23T09:02:52.419Z,3.63
2023-02-23T09:05:55.258Z,4.20
2023-02-23T09:08:57.597Z,4.05
2023-02-23T09:12:00.617Z,4.35
2023-02-23T09:18:19.300Z,3.65
2023-02-23T09:21:25.586Z,3.22
2023-02-23T09:24:36.524Z,3.50
2023-02-23T09:31:17.271Z,4.13
2023-02-23T09:34:20.209Z,4.10
2023-02-23T09:37:22.379Z,4.07
2023-02-23T09:40:28.336Z,4.82
2023-02-23T09:43:45.230Z,3.92
2023-02-23T09:46:53.095Z,4.15
2023-02-23T09:50:00.417Z,4.25
2023-02-23T09:53:40.774Z,4.22
2023-02-23T09:57:22.521Z,4.70
2023-02-23T10:00:28.081Z,4.50
2023-02-23T10:03:40.338Z,4.00
2023-02-23T10:06:49.690Z,3.42
2023-02-23T10:13:57.596Z,3.17
2023-02-23T10:17:56.701Z,3.33
2023-02-23T10:21:12.345Z,4.00
2023-02-23T10:24:40.910Z,4.75
2023-02-23T10:27:49.956Z,5.25
2023-02-23T10:30:56.943Z,4.45
2023-02-23T10:34:06.157Z,3.38
2023-02-23T10:37:13.058Z,2.78
2023-02-23T10:40:23.256Z,3.88
2023-02-23T10:43:25.811Z,4.35
2023-02-23T10:46:40.740Z,4.65
2023-02-23T10:49:48.516Z,4.55
2023-02-23T10:52:57.005Z,4.63
2023-02-23T10:56:06.935Z,4.57
2023-02-23T10:59:20.751Z,4.40
2023-02-23T11:02:27.573Z,4.63
2023-02-23T11:09:43.335Z,3.97
2023-02-23T11:12:53.659Z,5.93
2023-02-23T11:17:00.558Z,5.55
2023-02-23T11:20:20.527Z,8.60
2023-02-23T11:23:43.663Z,4.18
2023-02-23T11:26:48.782Z,4.45
2023-02-23T11:29:54.253Z,4.60
2023-02-23T11:33:11.100Z,4.53
2023-02-23T11:36:16.679Z,4.80
2023-02-23T11:39:22.978Z,4.32
2023-02-23T11:42:28.567Z,4.93
2023-02-23T11:45:34.624Z,3.50
2023-02-23T11:48:55.020Z,3.25
2023-02-23T11:51:59.595Z,3.58
2023-02-23T11:55:16.007Z,3.83
2023-02-23T11:58:28.137Z,3.60
2023-02-23T12:01:41.839Z,3.90
2023-02-23T12:04:48.162Z,3.70
2023-02-23T12:08:02.806Z,4.80
2023-02-23T12:11:15.277Z,4.22
2023-02-23T12:14:56.084Z,3.78
2023-02-23T12:18:05.513Z,4.97
2023-02-23T12:21:35.037Z,3.85
2023-02-23T12:24:45.541Z,4.32
2023-02-23T12:28:18.089Z,3.90
2023-02-23T12:31:43.261Z,3.83
2023-02-23T12:35:16.186Z,4.22
2023-02-23T12:38:38.535Z,4.45
2023-02-23T12:42:04.414Z,4.43
2023-02-23T12:45:17.521Z,4.70
2023-02-23T12:48:33.613Z,4.57
2023-02-23T12:51:41.316Z,4.38
2023-02-23T12:54:49.253Z,4.43
2023-02-23T12:58:02.030Z,4.93
2023-02-23T13:01:07.193Z,3.85
2023-02-23T13:04:34.690Z,3.78
2023-02-23T13:08:13.692Z,3.28
2023-02-23T13:11:33.319Z,2.97
2023-02-23T13:14:47.974Z,4.20
2023-02-23T13:18:04.918Z,3.47
2023-02-23T13:21:42.584Z,3.58
2023-02-23T13:24:49.627Z,3.67
2023-02-23T13:27:55.480Z,3.88
2023-02-23T13:30:58.207Z,3.53
2023-02-23T13:34:04.724Z,3.40
2023-02-23T13:37:08.658Z,3.58
2023-02-23T13:40:19.541Z,4.35
2023-02-23T13:43:24.243Z,3.85
2023-02-23T13:46:47.823Z,4.90
2023-02-23T13:50:22.805Z,4.13
2023-02-23T13:54:00.119Z,4.07
2023-02-23T13:57:08.812Z,3.75
2023-02-23T14:00:30.958Z,4.28
2023-02-23T14:03:45.420Z,4.05
2023-02-23T14:07:16.937Z,3.75
2023-02-23T14:10:23.917Z,4.18
2023-02-23T14:13:29.013Z,4.00
2023-02-23T14:16:31.634Z,3.50
2023-02-23T14:19:45.314Z,3.80
2023-02-23T14:23:16.006Z,3.05
2023-02-23T14:26:42.227Z,3.20
2023-02-23T14:30:10.407Z,3.78
2023-02-23T14:33:36.636Z,3.55
2023-02-23T14:36:44.443Z,3.22
2023-02-23T14:39:49.990Z,3.20
2023-02-23T14:42:57.711Z,3.70
2023-02-23T14:46:06.384Z,4.05
2023-02-23T14:52:22.317Z,3.35
2023-02-23T14:55:29.329Z,3.95
2023-02-23T14:58:35.359Z,3.58
2023-02-23T15:01:39.685Z,3.55
2023-02-23T15:04:42.402Z,3.55
2023-02-23T15:07:45.851Z,3.55
2023-02-23T15:10:51.128Z,4.18
2023-02-23T15:13:55.072Z,3.65
2023-02-23T15:16:57.307Z,3.55
2023-02-23T15:20:15.763Z,4.43
2023-02-23T15:23:19.618Z,4.30
2023-02-23T15:26:35.723Z,4.38
2023-02-23T15:29:41.606Z,4.97
2023-02-23T15:32:43.787Z,3.40
2023-02-23T15:35:54.495Z,3.53
2023-02-23T15:38:58.835Z,3.35
2023-02-23T15:42:02.555Z,4.65
2023-02-23T15:45:20.134Z,4.22
2023-02-23T15:48:36.513Z,4.13
2023-02-23T15:51:49.009Z,4.97
2023-02-23T15:55:06.651Z,5.32
2023-02-23T15:58:31.539Z,6.03
2023-02-23T16:01:34.740Z,4.70
2023-02-23T16:04:54.117Z,4.50
2023-02-23T16:08:05.605Z,5.00
2023-02-23T16:11:15.293Z,4.03
2023-02-23T16:14:20.200Z,4.13
2023-02-23T16:17:27.549Z,4.35
2023-02-23T16:20:35.610Z,4.43
2023-02-23T16:23:47.907Z,4.85
2023-02-23T16:26:58.214Z,5.20
2023-02-23T16:30:34.525Z,5.32
2023-02-23T16:33:55.019Z,5.68
2023-02-23T16:37:03.626Z,5.18
2023-02-23T16:43:10.445Z,4.18
2023-02-23T16:46:26.226Z,4.50
2023-02-23T16:49:35.887Z,5.03
2023-02-23T16:52:47.580Z,4.78
2023-02-23T16:56:02.772Z,5.22
2023-02-23T16:59:08.044Z,5.65
2023-02-23T17:02:13.912Z,5.50
2023-02-23T17:05:19.003Z,5.28
2023-02-23T17:08:36.738Z,4.90
2023-02-23T17:11:49.917Z,5.25
2023-02-23T17:14:52.794Z,5.43
2023-02-23T17:18:04.699Z,5.90
2023-02-23T17:21:23.068Z,5.65
2023-02-23T17:24:26.856Z,4.85
2023-02-23T17:27:28.860Z,4.47
2023-02-23T17:30:32.022Z,4.25
2023-02-23T17:33:36.589Z,4.75
2023-02-23T17:36:38.857Z,5.85
2023-02-23T17:39:42.228Z,5.22
2023-02-23T17:42:45.151Z,4.57
2023-02-23T17:45:48.233Z,5.07
2023-02-23T17:48:55.214Z,4.68
2023-02-23T17:51:58.335Z,4.40
2023-02-23T17:55:02.822Z,4.90
2023-02-23T17:58:04.900Z,4.88
2023-02-23T18:01:07.708Z,5.07
2023-02-23T18:04:09.880Z,4.32
2023-02-23T18:07:13.023Z,4.43
2023-02-23T18:10:17.308Z,5.20
2023-02-23T18:13:20.173Z,5.57
2023-02-23T18:16:25.373Z,3.90
2023-02-23T18:19:29.123Z,4.20
2023-02-23T18:22:37.037Z,5.13
2023-02-23T18:26:04.370Z,5.57
2023-02-23T18:29:20.190Z,5.20
2023-02-23T18:32:24.922Z,5.07
2023-02-23T18:35:28.194Z,5.25
2023-02-23T18:38:30.157Z,4.35
2023-02-23T18:41:44.820Z,3.75
2023-02-23T18:44:46.947Z,5.22
2023-02-23T18:47:51.752Z,4.75
2023-02-23T18:50:59.427Z,4.03
2023-02-23T18:54:15.814Z,4.70
2023-02-23T18:58:46.111Z,5.32
2023-02-23T19:02:00.228Z,4.45
2023-02-23T19:05:06.791Z,5.13
2023-02-23T19:08:13.943Z,5.18
2023-02-23T19:11:16.005Z,4.10
2023-02-23T19:14:40.970Z,5.18
2023-02-23T19:17:46.493Z,4.47
2023-02-23T19:20:52.461Z,5.75
2023-02-23T19:25:22.691Z,5.55
2023-02-23T19:29:07.129Z,5.55
2023-02-23T19:32:23.387Z,5.30
2023-02-23T19:35:34.648Z,5.13
2023-02-23T19:39:11.153Z,5.20
2023-02-23T19:42:43.882Z,4.93
2023-02-23T19:45:49.816Z,4.88
2023-02-23T19:49:10.338Z,4.25
2023-02-23T19:52:12.442Z,4.07
2023-02-23T19:55:16.548Z,5.03
2023-02-23T19:58:18.687Z,5.72
2023-02-23T20:01:23.611Z,4.40
2023-02-23T20:04:29.724Z,3.17
2023-02-23T20:07:34.468Z,3.10
2023-02-23T20:10:39.087Z,3.28
2023-02-23T20:13:41.641Z,2.85
2023-02-23T20:16:43.990Z,2.90
2023-02-23T20:19:46.074Z,3.20
2023-02-23T20:22:52.985Z,3.17
2023-02-23T20:25:58.194Z,3.33
2023-02-23T20:29:01.489Z,3.15
2023-02-23T20:32:04.766Z,3.58
2023-02-23T20:35:08.960Z,3.90
2023-02-23T20:38:11.689Z,5.93
2023-02-23T20:41:13.708Z,5.25
2023-02-23T20:44:16.278Z,5.75
2023-02-23T20:47:19.304Z,5.82
2023-02-23T20:50:25.658Z,5.63
2023-02-23T20:53:28.878Z,6.47
2023-02-23T20:56:32.283Z,5.82
2023-02-23T20:59:40.600Z,5.95
2023-02-23T21:02:42.751Z,5.30
2023-02-23T21:05:44.837Z,5.70
2023-02-23T21:08:51.284Z,6.07
2023-02-23T21:11:53.481Z,5.43
2023-02-23T21:14:56.591Z,5.75
2023-02-23T21:17:59.036Z,5.32
2023-02-23T21:21:10.159Z,5.95
2023-02-23T21:24:15.054Z,5.40
2023-02-23T21:27:19.896Z,5.72
2023-02-23T21:30:24.197Z,5.50
2023-02-23T21:33:26.323Z,5.32
2023-02-23T21:36:28.309Z,5.60
2023-02-23T21:39:31.049Z,5.22
2023-02-23T21:42:33.200Z,4.80
2023-02-23T21:45:35.676Z,5.53
2023-02-23T21:48:37.771Z,4.47
2023-02-23T21:51:39.851Z,4.75
2023-02-23T21:54:46.880Z,5.25
2023-02-23T21:57:48.978Z,3.33
2023-02-23T22:00:52.711Z,4.30
2023-02-23T22:03:56.858Z,4.47
2023-02-23T22:06:59.468Z,4.50
2023-02-23T22:10:01.651Z,4.35
2023-02-23T22:13:03.704Z,4.45
2023-02-23T22:16:07.102Z,4.65
2023-02-23T22:19:12.348Z,4.20
2023-02-23T22:22:15.401Z,4.20
2023-02-23T22:25:20.543Z,4.32
2023-02-23T22:28:24.014Z,4.75
2023-02-23T22:31:26.142Z,3.72
2023-02-23T22:34:28.613Z,3.53
2023-02-23T22:37:31.725Z,4.50
2023-02-23T22:40:42.363Z,4.10
2023-02-23T22:43:47.111Z,3.97
2023-02-23T22:46:49.545Z,4.85
2023-02-23T22:49:51.687Z,3.90
2023-02-23T22:52:53.819Z,4.88
2023-02-23T22:55:56.806Z,3.72
2023-02-23T22:59:06.241Z,3.97
2023-02-23T23:02:08.323Z,4.40
2023-02-23T23:05:12.840Z,5.97
2023-02-23T23:08:15.576Z,3.42
2023-02-23T23:11:21.552Z,4.45
2023-02-23T23:14:24.128Z,4.30
2023-02-23T23:17:26.156Z,4.43
2023-02-23T23:20:29.254Z,3.97
2023-02-23T23:23:34.860Z,4.03
2023-02-23T23:26:39.904Z,4.03
2023-02-23T23:29:46.782Z,4.20
2023-02-23T23:32:49.793Z,4.20
2023-02-23T23:35:54.305Z,4.10
2023-02-23T23:38:57.498Z,4.05
2023-02-23T23:42:01.996Z,3.67
2023-02-23T23:45:07.084Z,4.32
2023-02-23T23:48:10.366Z,4.43
2023-02-23T23:51:12.901Z,4.30
2023-02-23T23:54:19.188Z,4.30
2023-02-23T23:57:24.287Z,4.05
